Time;durP1;ratioP1;P1;durP2;ratioP2;P2;SDS_P1;SDS_P2;PMS_P1;PMS_P2;Temp;Humidity;BMP_temperature;BMP_pressure;BME280_temperature;BME280_humidity;BME280_pressure;Samples;Min_cycle;Max_cycle;Signal;HPM_P1;HPM_P2
2023/03/04 00:02:07;;;;;;;42.47;19.57;;;;;;;-0.75;100.00;99222.56;4959813;28;20238;-61
2023/03/04 00:04:33;;;;;;;41.20;18.07;;;;;;;-0.77;100.00;99219.22;4958317;28;20220;-61
2023/03/04 00:07:00;;;;;;;43.03;17.77;;;;;;;-0.75;100.00;99217.44;4961300;28;20244;-61
2023/03/04 00:09:28;;;;;;;44.23;18.23;;;;;;;-0.82;100.00;99219.38;4962206;28;20581;-61
2023/03/04 00:11:54;;;;;;;40.17;19.07;;;;;;;-0.93;100.00;99224.97;4958238;28;20288;-60
2023/03/04 00:14:21;;;;;;;40.23;17.83;;;;;;;-0.92;100.00;99223.22;4959335;28;20221;-61
2023/03/04 00:16:48;;;;;;;37.33;17.43;;;;;;;-0.95;100.00;99225.91;4960879;28;20300;-61
2023/03/04 00:19:15;;;;;;;43.07;18.30;;;;;;;-0.96;100.00;99219.97;4941919;28;20307;-61
2023/03/04 00:21:42;;;;;;;45.50;19.10;;;;;;;-0.88;100.00;99221.38;4942550;28;20686;-61
2023/03/04 00:24:08;;;;;;;42.30;18.27;;;;;;;-0.84;100.00;99223.75;4956584;28;20710;-61
2023/03/04 00:26:36;;;;;;;45.03;19.57;;;;;;;-0.96;100.00;99219.13;4959666;28;20698;-61
2023/03/04 00:29:03;;;;;;;47.27;19.93;;;;;;;-1.00;100.00;99215.03;4957530;28;20233;-60
2023/03/04 00:31:29;;;;;;;45.60;19.93;;;;;;;-0.98;100.00;99221.75;4958273;28;20339;-61
2023/03/04 00:33:56;;;;;;;41.17;19.67;;;;;;;-0.98;100.00;99220.91;4968967;28;20242;-61
2023/03/04 00:36:23;;;;;;;41.90;19.33;;;;;;;-1.02;100.00;99221.94;4972966;28;20232;-61
2023/03/04 00:38:50;;;;;;;42.87;19.13;;;;;;;-0.99;100.00;99222.66;4956829;28;20260;-61
2023/03/04 00:41:17;;;;;;;45.03;19.13;;;;;;;-1.00;100.00;99225.28;4973969;28;20236;-61
2023/03/04 00:43:44;;;;;;;45.97;19.60;;;;;;;-1.05;100.00;99218.59;4955335;28;20699;-60
2023/03/04 00:46:11;;;;;;;45.10;20.50;;;;;;;-1.12;100.00;99217.22;4979302;28;20348;-60
2023/03/04 00:48:38;;;;;;;40.47;18.90;;;;;;;-1.20;100.00;99220.06;4956026;28;20217;-60
2023/03/04 00:51:05;;;;;;;46.57;19.47;;;;;;;-1.07;100.00;99220.44;4960341;28;20264;-60
2023/03/04 00:53:32;;;;;;;40.93;19.63;;;;;;;-1.10;100.00;99220.56;4958436;28;20224;-60
2023/03/04 00:55:59;;;;;;;52.10;19.80;;;;;;;-1.17;100.00;99216.56;4955479;28;20236;-59
2023/03/04 00:58:25;;;;;;;43.03;19.00;;;;;;;-1.13;100.00;99220.66;4958040;28;20232;-60
2023/03/04 01:00:53;;;;;;;44.70;20.57;;;;;;;-1.11;100.00;99218.88;4955883;28;20305;-60
2023/03/04 01:03:20;;;;;;;40.83;19.43;;;;;;;-1.21;100.00;99217.59;4957525;28;20287;-60
2023/03/04 01:05:46;;;;;;;48.37;20.30;;;;;;;-1.25;100.00;99213.47;4957236;28;20237;-60
2023/03/04 01:08:13;;;;;;;43.60;20.03;;;;;;;-1.28;100.00;99214.41;4965758;28;20229;-60
2023/03/04 01:10:39;;;;;;;50.63;20.93;;;;;;;-1.33;100.00;99221.44;4954295;28;20232;-60
2023/03/04 01:13:06;;;;;;;46.60;20.67;;;;;;;-1.39;100.00;99203.75;4962391;28;20759;-61
2023/03/04 01:15:33;;;;;;;47.80;20.20;;;;;;;-1.40;100.00;99205.50;4961902;28;20229;-60
2023/03/04 01:18:01;;;;;;;47.13;20.67;;;;;;;-1.27;100.00;99210.16;4976587;28;20237;-60
2023/03/04 01:20:27;;;;;;;50.73;21.03;;;;;;;-1.36;100.00;99204.50;4962204;28;20755;-60
2023/03/04 01:22:54;;;;;;;47.23;20.87;;;;;;;-1.43;100.00;99215.03;4960945;28;20634;-60
2023/03/04 01:25:20;;;;;;;53.33;21.50;;;;;;;-1.43;100.00;99207.34;4963371;28;20225;-60
2023/03/04 01:27:47;;;;;;;49.20;21.93;;;;;;;-1.42;100.00;99211.56;4959327;28;20302;-61
2023/03/04 01:30:13;;;;;;;48.70;21.07;;;;;;;-1.36;100.00;99206.19;4980312;28;20229;-60
2023/03/04 01:32:40;;;;;;;50.57;21.33;;;;;;;-1.39;100.00;99214.84;4948614;28;20239;-60
2023/03/04 01:35:09;;;;;;;45.00;20.17;;;;;;;-1.42;100.00;99203.88;4968703;28;20259;-61
2023/03/04 01:37:35;;;;;;;48.13;21.43;;;;;;;-1.36;100.00;99207.06;4950899;28;20232;-60
2023/03/04 01:40:04;;;;;;;48.47;21.23;;;;;;;-1.44;100.00;99206.53;4943429;28;20591;-60
2023/03/04 01:42:34;;;;;;;47.33;21.30;;;;;;;-1.53;100.00;99207.69;4961781;28;20262;-61
2023/03/04 01:45:01;;;;;;;50.17;20.37;;;;;;;-1.52;100.00;99208.53;4962879;28;20691;-60
2023/03/04 01:47:29;;;;;;;53.73;21.53;;;;;;;-1.54;100.00;99206.03;4964235;28;20279;-60
2023/03/04 01:49:57;;;;;;;49.33;21.57;;;;;;;-1.51;100.00;99207.66;4951374;28;20235;-61
2023/03/04 01:52:27;;;;;;;48.37;21.63;;;;;;;-1.61;100.00;99198.66;4977769;28;20247;-61
2023/03/04 01:54:55;;;;;;;52.30;21.03;;;;;;;-1.55;100.00;99204.38;4958965;28;20315;-60
2023/03/04 01:57:23;;;;;;;50.43;21.50;;;;;;;-1.57;100.00;99198.47;4963806;28;20220;-60
2023/03/04 02:00:17;;;;;;;50.27;21.27;;;;;;;-1.64;100.00;99200.44;4978244;28;20755;-61
2023/03/04 02:02:45;;;;;;;54.00;21.53;;;;;;;-1.60;100.00;99198.63;4961767;28;20240;-60
2023/03/04 02:05:13;;;;;;;53.97;22.63;;;;;;;-1.65;100.00;99197.97;4966062;28;20241;-61
2023/03/04 02:07:42;;;;;;;52.43;22.93;;;;;;;-1.64;100.00;99199.63;4963129;28;20300;-61
2023/03/04 02:10:11;;;;;;;51.20;22.20;;;;;;;-1.65;100.00;99198.78;4968270;28;20635;-60
2023/03/04 02:12:39;;;;;;;47.43;21.43;;;;;;;-1.64;100.00;99202.19;4963442;28;20247;-60
2023/03/04 02:15:07;;;;;;;44.07;20.53;;;;;;;-1.72;100.00;99197.34;4982410;28;20586;-60
2023/03/04 02:17:34;;;;;;;48.23;21.80;;;;;;;-1.80;100.00;99195.09;4963514;28;20564;-60
2023/03/04 02:20:07;;;;;;;46.17;19.93;;;;;;;-1.71;100.00;99200.75;4965782;28;20315;-60
2023/03/04 02:22:38;;;;;;;41.13;20.13;;;;;;;-1.76;100.00;99200.09;4980136;28;20240;-60
2023/03/04 02:25:12;;;;;;;46.00;20.40;;;;;;;-1.84;100.00;99198.66;4980943;28;20246;-60
2023/03/04 02:27:40;;;;;;;46.53;21.20;;;;;;;-1.85;100.00;99199.53;4964749;28;20231;-60
2023/03/04 02:30:10;;;;;;;45.90;21.37;;;;;;;-1.94;100.00;99192.22;4982359;28;20348;-60
2023/03/04 02:32:37;;;;;;;46.03;20.70;;;;;;;-1.96;100.00;99199.94;4964223;28;20228;-60
2023/03/04 02:35:04;;;;;;;48.40;20.07;;;;;;;-1.97;100.00;99195.72;4965518;28;20229;-60
2023/03/04 02:37:33;;;;;;;50.63;21.93;;;;;;;-1.97;100.00;99193.16;4963131;28;20615;-61
2023/03/04 02:40:00;;;;;;;52.60;23.70;;;;;;;-1.94;100.00;99187.09;4965778;28;20236;-61
2023/03/04 02:42:27;;;;;;;46.73;21.47;;;;;;;-1.89;100.00;99190.31;4982149;28;20311;-61
2023/03/04 02:45:01;;;;;;;45.60;20.97;;;;;;;-1.89;100.00;99192.88;4961768;28;20225;-62
2023/03/04 02:47:28;;;;;;;51.23;21.60;;;;;;;-1.98;100.00;99188.91;4981379;28;20232;-62
2023/03/04 02:49:55;;;;;;;50.43;21.57;;;;;;;-2.01;100.00;99188.22;4965431;28;20225;-61
2023/03/04 02:52:26;;;;;;;55.03;23.13;;;;;;;-2.02;100.00;99192.47;4964746;28;20620;-61
2023/03/04 02:54:53;;;;;;;48.40;22.27;;;;;;;-2.03;100.00;99188.25;4963615;28;20232;-62
2023/03/04 02:57:19;;;;;;;56.17;22.43;;;;;;;-2.01;100.00;99189.03;4967145;28;20312;-61
2023/03/04 02:59:51;;;;;;;51.97;22.43;;;;;;;-2.00;100.00;99188.16;4964758;28;20652;-62
2023/03/04 03:02:22;;;;;;;54.13;22.00;;;;;;;-1.99;100.00;99189.81;4981401;28;20290;-61
2023/03/04 03:04:50;;;;;;;51.00;22.10;;;;;;;-2.09;100.00;99186.78;4962968;28;20236;-62
2023/03/04 03:07:19;;;;;;;49.50;21.40;;;;;;;-2.15;100.00;99189.56;4965849;28;20261;-60
2023/03/04 03:09:45;;;;;;;56.23;22.03;;;;;;;-2.14;100.00;99186.09;4977771;28;20310;-61
2023/03/04 03:12:12;;;;;;;48.47;22.07;;;;;;;-2.18;100.00;99179.44;4963703;28;20239;-61
2023/03/04 03:14:39;;;;;;;53.17;23.87;;;;;;;-2.25;100.00;99183.97;4964105;28;20227;-61
2023/03/04 03:17:08;;;;;;;46.80;21.77;;;;;;;-2.20;100.00;99180.41;4980691;28;20703;-62
2023/03/04 03:19:36;;;;;;;47.33;20.20;;;;;;;-2.13;100.00;99182.66;4980527;28;20764;-61
2023/03/04 03:22:05;;;;;;;49.70;21.40;;;;;;;-2.18;100.00;99171.75;4964068;28;20249;-61
2023/03/04 03:24:32;;;;;;;49.67;22.13;;;;;;;-2.23;100.00;99176.22;4977474;28;20591;-61
2023/03/04 03:26:58;;;;;;;52.27;21.80;;;;;;;-2.23;100.00;99177.06;4957637;28;20758;-61
2023/03/04 03:29:25;;;;;;;54.40;22.10;;;;;;;-2.29;100.00;99182.41;4964088;28;20236;-61
2023/03/04 03:31:52;;;;;;;56.50;22.70;;;;;;;-2.32;100.00;99177.41;4960779;28;20276;-61
2023/03/04 03:34:20;;;;;;;49.93;22.20;;;;;;;-2.34;100.00;99175.78;4963206;28;20261;-60
2023/03/04 03:36:49;;;;;;;52.23;22.73;;;;;;;-2.31;100.00;99171.41;4962164;28;20759;-61
2023/03/04 03:39:16;;;;;;;52.23;22.97;;;;;;;-2.36;100.00;99173.28;4980230;28;20709;-61
2023/03/04 03:41:43;;;;;;;53.70;23.20;;;;;;;-2.39;100.00;99176.78;4963419;28;20653;-61
2023/03/04 03:44:09;;;;;;;53.40;23.07;;;;;;;-2.41;100.00;99176.00;4965315;28;20238;-60
2023/03/04 03:46:36;;;;;;;52.63;22.40;;;;;;;-2.44;100.00;99175.28;4963039;28;20245;-61
2023/03/04 03:49:02;;;;;;;56.53;22.27;;;;;;;-2.45;100.00;99179.53;4964728;28;20699;-61
2023/03/04 03:51:29;;;;;;;47.33;21.43;;;;;;;-2.48;100.00;99178.84;4965232;28;20225;-61
2023/03/04 03:53:57;;;;;;;49.77;22.10;;;;;;;-2.47;100.00;99171.09;4962572;28;20304;-61
2023/03/04 03:56:24;;;;;;;50.37;21.43;;;;;;;-2.32;100.00;99176.53;4965364;28;20233;-61
2023/03/04 03:58:50;;;;;;;48.37;22.23;;;;;;;-2.38;100.00;99178.44;4953925;28;20230;-60
2023/03/04 04:01:17;;;;;;;58.80;22.93;;;;;;;-2.49;100.00;99179.72;4963584;28;20292;-61
2023/03/04 04:03:43;;;;;;;53.93;22.80;;;;;;;-2.56;100.00;99173.97;4960599;28;20225;-60
2023/03/04 04:06:11;;;;;;;56.33;23.27;;;;;;;-2.57;100.00;99178.28;4966196;28;20369;-61
2023/03/04 04:08:38;;;;;;;56.13;23.50;;;;;;;-2.63;100.00;99180.19;4953113;28;20268;-60
2023/03/04 04:11:06;;;;;;;54.90;23.67;;;;;;;-2.57;100.00;99177.41;4966133;28;20236;-61
2023/03/04 04:13:32;;;;;;;55.63;22.57;;;;;;;-2.50;100.00;99188.28;4963994;28;20230;-61
2023/03/04 04:15:59;;;;;;;52.17;22.53;;;;;;;-2.52;100.00;99193.44;4965622;28;20237;-61
2023/03/04 04:18:26;;;;;;;56.57;23.70;;;;;;;-2.61;100.00;99186.09;4966231;28;20237;-61
2023/03/04 04:20:52;;;;;;;50.63;22.93;;;;;;;-2.67;100.00;99188.00;4963656;28;20308;-61
2023/03/04 04:23:19;;;;;;;53.57;23.70;;;;;;;-2.58;100.00;99191.09;4965962;28;20229;-60
2023/03/04 04:25:45;;;;;;;47.53;21.40;;;;;;;-2.68;100.00;99183.78;4961850;28;20294;-61
2023/03/04 04:28:13;;;;;;;57.03;23.00;;;;;;;-2.67;100.00;99190.56;4965929;28;20237;-60
2023/03/04 04:30:43;;;;;;;59.00;23.40;;;;;;;-2.70;100.00;99187.25;5185026;23;20522;-62
2023/03/04 04:33:10;;;;;;;59.13;23.33;;;;;;;-2.80;100.00;99194.41;4941982;23;20233;-58
2023/03/04 04:35:38;;;;;;;48.40;21.03;;;;;;;-2.78;100.00;99187.53;4962701;28;20554;-55
2023/03/04 04:38:05;;;;;;;52.00;21.47;;;;;;;-2.81;100.00;99192.75;4965627;28;20309;-57
2023/03/04 04:40:31;;;;;;;52.97;23.47;;;;;;;-2.84;100.00;99186.00;4965220;28;20228;-56
2023/03/04 04:42:58;;;;;;;53.10;22.77;;;;;;;-2.89;100.00;99189.59;4961879;28;20233;-57
2023/03/04 04:45:33;;;;;;;55.70;22.50;;;;;;;-2.91;100.00;99188.81;4964364;28;20226;-55
2023/03/04 04:48:00;;;;;;;53.00;22.63;;;;;;;-2.91;100.00;99188.81;4961986;28;20695;-57
2023/03/04 04:50:27;;;;;;;53.03;21.80;;;;;;;-2.83;100.00;99186.84;4965670;28;20241;-55
2023/03/04 04:52:54;;;;;;;61.63;22.60;;;;;;;-2.83;100.00;99190.22;4962760;28;20730;-56
2023/03/04 04:55:20;;;;;;;51.67;23.30;;;;;;;-2.87;100.00;99198.88;4966100;28;20232;-54
2023/03/04 04:57:47;;;;;;;52.00;21.37;;;;;;;-2.88;100.00;99198.94;4963041;28;20237;-54
2023/03/04 05:00:14;;;;;;;50.90;22.10;;;;;;;-2.84;100.00;99208.16;4966084;28;20707;-59
2023/03/04 05:02:42;;;;;;;54.10;21.97;;;;;;;-2.97;100.00;99206.03;4962685;28;20243;-53
2023/03/04 05:05:09;;;;;;;51.30;21.80;;;;;;;-3.06;100.00;99214.00;4965040;28;20229;-55
2023/03/04 05:07:36;;;;;;;53.03;22.40;;;;;;;-3.16;100.00;99205.78;4963028;28;20276;-58
2023/03/04 05:10:04;;;;;;;56.50;22.30;;;;;;;-3.17;100.00;99208.41;4966005;28;20240;-55
2023/03/04 05:12:30;;;;;;;54.43;21.90;;;;;;;-3.15;100.00;99211.72;4965864;28;20229;-55
2023/03/04 05:14:57;;;;;;;54.67;22.70;;;;;;;-3.16;100.00;99221.09;4963380;28;20232;-57
2023/03/04 05:17:23;;;;;;;53.80;22.57;;;;;;;-3.23;100.00;99217.09;4965459;28;20718;-55
2023/03/04 05:19:51;;;;;;;56.50;22.53;;;;;;;-3.21;100.00;99214.47;4963122;28;20572;-57
2023/03/04 05:22:18;;;;;;;53.83;22.97;;;;;;;-3.29;100.00;99207.91;4965908;28;20240;-55
2023/03/04 05:24:44;;;;;;;51.07;23.27;;;;;;;-3.33;100.00;99211.44;4960028;28;20233;-57
2023/03/04 05:27:11;;;;;;;56.53;23.87;;;;;;;-3.33;100.00;99208.88;4965552;28;20232;-56
2023/03/04 05:29:38;;;;;;;58.67;24.53;;;;;;;-3.22;100.00;99216.22;4963067;28;20229;-54
2023/03/04 05:32:05;;;;;;;62.70;23.33;;;;;;;-3.15;100.00;99212.56;4965519;28;20648;-56
2023/03/04 05:34:31;;;;;;;56.37;22.77;;;;;;;-3.15;100.00;99201.50;4965560;28;20291;-55
2023/03/04 05:36:59;;;;;;;60.63;22.70;;;;;;;-3.24;100.00;99207.78;4963355;28;20244;-56
2023/03/04 05:39:26;;;;;;;57.40;24.80;;;;;;;-3.27;100.00;99216.34;4965264;28;20252;-57
2023/03/04 05:41:52;;;;;;;57.47;23.37;;;;;;;-3.30;100.00;99219.00;4962695;28;20249;-57
2023/03/04 05:44:19;;;;;;;51.90;23.07;;;;;;;-3.28;100.00;99219.78;4964394;28;20307;-54
2023/03/04 05:46:45;;;;;;;50.60;22.03;;;;;;;-3.35;100.00;99217.47;4962705;28;20284;-54
2023/03/04 05:49:12;;;;;;;53.87;22.90;;;;;;;-3.42;100.00;99227.03;4965640;28;20293;-56
2023/03/04 05:51:38;;;;;;;50.63;23.00;;;;;;;-3.45;100.00;99217.78;4961340;28;20243;-56
2023/03/04 05:54:06;;;;;;;55.20;22.33;;;;;;;-3.41;100.00;99224.44;4962944;28;20272;-54
2023/03/04 05:56:33;;;;;;;49.53;22.00;;;;;;;-3.40;100.00;99227.81;4962112;28;20241;-56
2023/03/04 05:59:00;;;;;;;57.90;27.40;;;;;;;-3.42;100.00;99233.00;4965777;28;20240;-57
2023/03/04 06:01:26;;;;;;;58.27;26.13;;;;;;;-3.37;100.00;99240.50;4968953;28;20299;-56
2023/03/04 06:03:53;;;;;;;61.67;26.83;;;;;;;-3.37;100.00;99244.78;4966115;28;20245;-55
2023/03/04 06:06:19;;;;;;;60.90;26.40;;;;;;;-3.38;100.00;99248.22;4968832;28;20236;-54
2023/03/04 06:08:46;;;;;;;54.00;25.13;;;;;;;-3.41;100.00;99249.13;4965830;28;20236;-54
2023/03/04 06:11:14;;;;;;;58.33;24.40;;;;;;;-3.41;100.00;99255.09;4968310;28;20249;-57
2023/03/04 06:13:40;;;;;;;57.87;24.43;;;;;;;-3.47;100.00;99264.63;4964903;28;20738;-53
2023/03/04 06:16:07;;;;;;;52.67;21.77;;;;;;;-3.48;100.00;99260.41;4966790;28;20261;-54
2023/03/04 06:18:34;;;;;;;55.80;23.87;;;;;;;-3.49;100.00;99269.78;4966712;28;20240;-54
2023/03/04 06:21:02;;;;;;;52.30;24.03;;;;;;;-3.47;100.00;99265.47;4966917;28;20247;-56
2023/03/04 06:23:31;;;;;;;53.10;24.13;;;;;;;-3.43;100.00;99271.31;4968383;28;20310;-56
2023/03/04 06:25:59;;;;;;;59.53;25.80;;;;;;;-3.39;100.00;99275.44;4966223;28;20237;-57
2023/03/04 06:28:28;;;;;;;58.73;24.87;;;;;;;-3.32;100.00;99283.75;4968495;28;20265;-57
2023/03/04 06:30:56;;;;;;;51.47;21.87;;;;;;;-3.34;100.00;99281.25;4965614;28;20573;-57
2023/03/04 06:33:23;;;;;;;52.60;21.77;;;;;;;-3.32;100.00;99279.47;4968072;28;20300;-57
2023/03/04 06:35:54;;;;;;;46.63;20.43;;;;;;;-3.28;100.00;99281.06;4964499;28;20228;-54
2023/03/04 06:38:21;;;;;;;49.67;21.40;;;;;;;-3.28;100.00;99277.69;4967162;28;20799;-56
2023/03/04 06:40:47;;;;;;;54.53;22.27;;;;;;;-3.21;100.00;99279.16;4965392;28;20966;-56
2023/03/04 06:43:14;;;;;;;53.57;20.70;;;;;;;-3.08;100.00;99283.88;4967497;28;20296;-56
2023/03/04 06:45:42;;;;;;;45.10;20.63;;;;;;;-3.11;100.00;99283.06;4963924;28;20708;-55
2023/03/04 06:48:08;;;;;;;51.93;21.63;;;;;;;-3.10;100.00;99281.38;4968206;28;20310;-54
2023/03/04 06:50:35;;;;;;;44.43;19.53;;;;;;;-2.99;100.00;99279.31;4965435;28;20237;-53
2023/03/04 06:53:01;;;;;;;47.30;19.87;;;;;;;-2.92;100.00;99284.22;4967385;28;20239;-55
2023/03/04 06:55:28;;;;;;;41.50;18.00;;;;;;;-2.90;100.00;99278.19;4967044;28;20233;-55
2023/03/04 06:57:55;;;;;;;43.20;18.33;;;;;;;-2.87;100.00;99275.53;4964927;28;20295;-56
2023/03/04 07:00:23;;;;;;;42.33;18.03;;;;;;;-2.86;100.00;99279.75;4967940;28;20237;-56
2023/03/04 07:02:51;;;;;;;45.00;18.73;;;;;;;-2.82;100.00;99277.94;4964423;28;20243;-56
2023/03/04 07:05:18;;;;;;;44.03;18.30;;;;;;;-2.75;100.00;99276.00;4967346;28;20291;-57
2023/03/04 07:07:45;;;;;;;43.73;18.80;;;;;;;-2.71;100.00;99277.56;4964808;28;20791;-55
2023/03/04 07:10:11;;;;;;;42.60;18.10;;;;;;;-2.66;100.00;99270.59;4966590;28;20228;-55
2023/03/04 07:12:38;;;;;;;46.60;18.80;;;;;;;-2.55;100.00;99278.75;4964507;28;20292;-55
2023/03/04 07:15:05;;;;;;;35.80;16.93;;;;;;;-2.51;100.00;99279.47;4967320;28;20242;-55
2023/03/04 07:17:33;;;;;;;46.83;18.57;;;;;;;-2.41;100.00;99285.09;4963174;28;20232;-57
2023/03/04 07:20:01;;;;;;;46.07;18.30;;;;;;;-2.40;100.00;99281.66;4966845;28;20636;-56
2023/03/04 07:22:28;;;;;;;41.70;19.00;;;;;;;-2.39;100.00;99289.28;4965876;28;20695;-56
2023/03/04 07:24:55;;;;;;;47.33;19.60;;;;;;;-2.36;100.00;99296.03;4963912;28;20237;-55
2023/03/04 07:27:21;;;;;;;45.03;18.77;;;;;;;-2.32;100.00;99296.72;4967110;28;20574;-55
2023/03/04 07:29:48;;;;;;;47.47;19.43;;;;;;;-2.27;100.00;99294.84;4964224;28;20279;-53
2023/03/04 07:32:14;;;;;;;42.90;19.27;;;;;;;-2.23;100.00;99294.72;4967168;28;20249;-56
2023/03/04 07:34:41;;;;;;;47.50;20.50;;;;;;;-2.19;100.00;99295.44;4964314;28;20590;-54
2023/03/04 07:37:09;;;;;;;104.00;43.70;;;;;;;-2.12;100.00;99296.88;4967202;28;20226;-53
2023/03/04 07:39:35;;;;;;;78.17;33.83;;;;;;;-2.06;100.00;99306.06;4962899;28;20735;-53
2023/03/04 07:42:02;;;;;;;66.83;31.40;;;;;;;-2.05;100.00;99306.91;4966601;28;20241;-56
2023/03/04 07:44:29;;;;;;;66.97;29.83;;;;;;;-2.04;100.00;99313.69;4966962;28;20240;-52
2023/03/04 07:46:55;;;;;;;65.50;29.70;;;;;;;-1.98;100.00;99316.84;4966022;28;20241;-56
2023/03/04 07:49:22;;;;;;;69.90;30.20;;;;;;;-1.85;100.00;99327.50;4967971;28;20237;-57
2023/03/04 07:51:49;;;;;;;70.07;29.20;;;;;;;-1.74;100.00;99321.16;4964476;28;20264;-56
2023/03/04 07:54:18;;;;;;;64.03;27.67;;;;;;;-1.63;100.00;99327.56;4966593;28;20284;-55
2023/03/04 07:56:45;;;;;;;58.47;25.40;;;;;;;-1.59;100.00;99330.00;4964094;28;20243;-54
2023/03/04 07:59:12;;;;;;;58.60;25.90;;;;;;;-1.54;100.00;99325.53;4966555;28;20887;-57
2023/03/04 08:01:38;;;;;;;63.17;26.63;;;;;;;-1.48;100.00;99331.25;4963306;28;21017;-56
2023/03/04 08:04:07;;;;;;;53.67;24.73;;;;;;;-1.37;100.00;99330.03;4966289;28;20241;-54
2023/03/04 08:06:34;;;;;;;61.97;26.53;;;;;;;-1.36;100.00;99324.00;4963919;28;20296;-57
2023/03/04 08:09:02;;;;;;;59.07;27.50;;;;;;;-1.25;100.00;99331.31;4965999;28;20712;-57
2023/03/04 08:11:31;;;;;;;52.27;24.70;;;;;;;-1.16;100.00;99325.00;4966408;28;20248;-57
2023/03/04 08:13:58;;;;;;;56.27;24.30;;;;;;;-1.04;100.00;99332.19;4962356;28;20229;-54
2023/03/04 08:16:26;;;;;;;52.20;23.37;;;;;;;-0.94;100.00;99325.81;4966501;28;20236;-54
2023/03/04 08:18:55;;;;;;;61.13;27.77;;;;;;;-0.83;100.00;99327.13;4963683;28;20243;-57
2023/03/04 08:21:23;;;;;;;69.07;28.27;;;;;;;-0.60;100.00;99331.31;4966031;28;20278;-56
2023/03/04 08:23:50;;;;;;;57.17;23.77;;;;;;;-0.28;100.00;99328.31;4963492;28;20222;-55
2023/03/04 08:26:19;;;;;;;46.80;20.60;;;;;;;0.11;100.00;99330.91;4964773;28;20241;-58
2023/03/04 08:28:47;;;;;;;43.73;19.03;;;;;;;0.47;100.00;99333.66;4963449;28;20236;-56
2023/03/04 08:31:16;;;;;;;27.37;12.90;;;;;;;0.68;98.98;99342.09;4966163;28;20251;-57
2023/03/04 08:33:42;;;;;;;45.50;19.37;;;;;;;0.86;98.18;99346.41;4962963;28;20251;-57
2023/03/04 08:36:10;;;;;;;41.13;19.27;;;;;;;0.90;96.86;99343.69;4965115;28;20233;-54
2023/03/04 08:38:37;;;;;;;78.20;45.37;;;;;;;1.01;95.94;99347.44;4961620;28;20791;-57
2023/03/04 08:41:03;;;;;;;53.40;27.67;;;;;;;1.12;95.21;99356.38;4964783;28;20229;-56
2023/03/04 08:43:33;;;;;;;82.97;43.13;;;;;;;1.14;94.84;99351.97;4963514;28;20225;-58
2023/03/04 08:46:01;;;;;;;43.53;21.77;;;;;;;1.26;93.54;99353.97;4965711;28;20312;-57
2023/03/04 08:48:28;;;;;;;40.40;18.97;;;;;;;1.38;93.72;99359.44;4966134;28;20246;-55
2023/03/04 08:50:54;;;;;;;41.33;20.13;;;;;;;1.42;92.97;99356.66;4963225;28;20237;-58
2023/03/04 08:53:21;;;;;;;44.40;21.17;;;;;;;1.33;91.55;99352.78;4965021;28;20240;-57
2023/03/04 08:55:48;;;;;;;43.57;21.77;;;;;;;1.42;93.04;99355.81;4963503;28;20276;-56
2023/03/04 08:58:15;;;;;;;30.77;13.17;;;;;;;1.38;92.25;99367.16;4965016;28;20229;-57
2023/03/04 09:00:47;;;;;;;47.93;22.80;;;;;;;1.47;91.47;99367.56;4962744;28;20222;-58
2023/03/04 09:03:16;;;;;;;43.00;19.60;;;;;;;1.52;91.33;99362.19;4965841;28;20262;-57
2023/03/04 09:05:44;;;;;;;31.77;15.10;;;;;;;1.46;90.87;99362.47;4962887;28;20233;-57
2023/03/04 09:08:11;;;;;;;40.47;18.83;;;;;;;1.59;90.08;99366.13;4965598;28;20229;-54
2023/03/04 09:10:38;;;;;;;38.23;18.30;;;;;;;1.57;89.81;99367.94;4962711;28;20281;-56
2023/03/04 09:13:05;;;;;;;36.33;18.43;;;;;;;1.60;89.58;99361.78;4965848;28;20287;-57
2023/03/04 09:15:34;;;;;;;26.33;13.17;;;;;;;1.59;89.60;99362.72;4966025;28;20376;-57
2023/03/04 09:18:01;;;;;;;39.87;18.80;;;;;;;1.75;88.56;99355.88;4963043;28;20244;-57
2023/03/04 09:20:30;;;;;;;35.20;14.73;;;;;;;1.67;87.96;99352.03;4965465;28;20232;-56
2023/03/04 09:22:56;;;;;;;24.37;12.50;;;;;;;1.67;88.00;99360.56;4963141;28;20245;-57
2023/03/04 09:25:23;;;;;;;41.67;19.27;;;;;;;1.60;88.87;99356.63;4965679;28;20225;-57
2023/03/04 09:27:49;;;;;;;21.70;11.53;;;;;;;1.55;88.00;99348.34;4962036;28;20293;-58
2023/03/04 09:30:16;;;;;;;35.27;14.37;;;;;;;1.65;87.48;99356.44;4965320;28;20237;-55
2023/03/04 09:32:43;;;;;;;43.57;18.67;;;;;;;1.68;87.53;99364.81;4963556;28;20228;-57
2023/03/04 09:35:10;;;;;;;28.87;11.07;;;;;;;1.81;87.88;99359.91;4968930;28;20237;-55
2023/03/04 09:37:38;;;;;;;39.00;17.13;;;;;;;1.81;87.07;99357.34;4966851;28;20244;-57
2023/03/04 09:40:07;;;;;;;43.77;20.10;;;;;;;1.95;85.88;99351.47;4968882;28;20709;-55
2023/03/04 09:42:35;;;;;;;42.27;19.53;;;;;;;1.91;86.48;99355.13;4966499;28;20245;-57
2023/03/04 09:45:05;;;;;;;39.23;19.20;;;;;;;2.00;86.56;99353.84;4967254;28;20245;-56
2023/03/04 09:47:34;;;;;;;43.43;20.17;;;;;;;2.04;86.57;99355.34;4969172;28;20292;-57
2023/03/04 09:50:03;;;;;;;43.87;20.53;;;;;;;2.10;86.45;99357.59;4966265;28;20229;-57
2023/03/04 09:52:44;;;;;;;48.27;19.37;;;;;;;2.07;86.01;99360.34;4969396;28;20234;-58
2023/03/04 09:55:22;;;;;;;39.93;18.27;;;;;;;1.99;86.28;99367.63;4965913;28;20628;-56
2023/03/04 09:57:53;;;;;;;42.40;19.67;;;;;;;2.05;86.10;99367.31;4966024;28;20233;-56
2023/03/04 10:00:22;;;;;;;38.43;16.53;;;;;;;1.96;86.20;99362.63;4969120;28;20301;-56
2023/03/04 10:03:13;;;;;;;41.93;18.13;;;;;;;1.89;85.22;99365.50;4965322;28;20316;-56
2023/03/04 10:05:44;;;;;;;45.20;18.40;;;;;;;2.02;85.12;99367.47;4964832;28;20595;-56
2023/03/04 10:08:26;;;;;;;42.87;20.27;;;;;;;2.05;85.19;99372.47;4966656;28;20296;-56
2023/03/04 10:10:54;;;;;;;47.70;21.80;;;;;;;2.23;85.38;99370.66;4966070;28;20775;-56
2023/03/04 10:13:31;;;;;;;40.27;16.30;;;;;;;2.20;84.92;99374.22;4968632;28;20396;-54
2023/03/04 10:16:00;;;;;;;45.37;19.37;;;;;;;2.24;83.27;99377.50;4966667;28;20229;-56
2023/03/04 10:18:33;;;;;;;48.70;22.90;;;;;;;2.34;83.24;99373.53;4968588;28;20289;-55
2023/03/04 10:21:04;;;;;;;52.83;24.63;;;;;;;2.28;82.94;99373.00;4966424;28;20312;-57
2023/03/04 10:23:36;;;;;;;49.20;24.07;;;;;;;2.41;82.11;99370.63;4966236;28;20335;-57
2023/03/04 10:26:12;;;;;;;54.87;22.80;;;;;;;2.49;81.49;99364.16;4967401;28;20316;-55
2023/03/04 10:28:39;;;;;;;52.53;23.13;;;;;;;2.65;80.68;99360.75;4964038;28;20272;-54
2023/03/04 10:31:15;;;;;;;46.17;23.47;;;;;;;2.66;80.34;99359.84;4968256;28;20241;-57
2023/03/04 10:33:41;;;;;;;38.50;18.13;;;;;;;2.42;80.95;99356.84;4964814;28;20292;-57
2023/03/04 10:36:25;;;;;;;52.53;22.57;;;;;;;2.67;79.86;99361.50;4968025;28;20244;-56
2023/03/04 10:38:57;;;;;;;47.13;23.97;;;;;;;2.72;78.41;99364.69;4964357;28;20245;-54
2023/03/04 10:41:26;;;;;;;48.40;23.23;;;;;;;2.97;77.94;99360.78;4967548;28;20284;-57
2023/03/04 10:44:02;;;;;;;39.83;19.93;;;;;;;2.86;77.35;99363.09;4963827;28;20242;-57
2023/03/04 10:46:29;;;;;;;48.07;22.80;;;;;;;2.95;76.82;99363.41;4968091;28;20977;-54
2023/03/04 10:48:56;;;;;;;53.47;24.80;;;;;;;2.96;76.06;99361.69;4965521;28;20237;-56
2023/03/04 10:51:24;;;;;;;50.23;24.97;;;;;;;3.19;76.78;99359.56;4968039;28;20784;-56
2023/03/04 10:53:56;;;;;;;51.97;25.13;;;;;;;3.25;76.55;99365.22;4965190;28;20237;-59
2023/03/04 10:56:35;;;;;;;54.27;26.17;;;;;;;3.37;73.78;99355.94;4968061;28;20237;-54
2023/03/04 10:59:39;;;;;;;57.20;26.70;;;;;;;3.19;75.04;99359.56;4964802;28;20238;-53
2023/03/04 11:02:16;;;;;;;56.80;26.10;;;;;;;3.27;74.36;99352.22;4964641;28;20244;-57
2023/03/04 11:04:43;;;;;;;59.33;26.77;;;;;;;3.40;72.81;99350.63;4964140;28;20233;-56
2023/03/04 11:07:10;;;;;;;57.17;25.53;;;;;;;3.47;74.09;99345.94;4967668;28;20772;-57
2023/03/04 11:09:39;;;;;;;61.10;26.27;;;;;;;3.49;72.34;99351.00;4965137;28;20788;-56
2023/03/04 11:12:12;;;;;;;56.70;28.03;;;;;;;3.39;71.87;99351.53;4967130;28;20240;-57
2023/03/04 11:14:43;;;;;;;59.23;26.23;;;;;;;3.39;71.51;99346.38;4964527;28;20708;-56
2023/03/04 11:17:22;;;;;;;63.00;27.73;;;;;;;3.30;71.12;99340.91;4967755;28;20240;-55
2023/03/04 11:19:54;;;;;;;61.20;26.20;;;;;;;3.44;72.33;99345.28;4963010;28;20710;-54